sensor_id;sensor_type;location;lat;lon;timestamp;P1;durP1;ratioP1;P2;durP2;ratioP2
28627;SDS011;15815;46.760;19.604;2023-04-25T00:01:31;16.65;;;13.95;;
28627;SDS011;15815;46.760;19.604;2023-04-25T00:03:57;14.32;;;12.90;;
28627;SDS011;15815;46.760;19.604;2023-04-25T00:06:24;17.80;;;13.27;;
28627;SDS011;15815;46.760;19.604;2023-04-25T00:08:49;19.27;;;13.60;;
28627;SDS011;15815;46.760;19.604;2023-04-25T00:11:15;15.60;;;12.10;;
28627;SDS011;15815;46.760;19.604;2023-04-25T00:13:41;13.98;;;12.40;;
28627;SDS011;15815;46.760;19.604;2023-04-25T00:16:07;14.20;;;12.50;;
28627;SDS011;15815;46.760;19.604;2023-04-25T00:18:32;13.27;;;11.63;;
28627;SDS011;15815;46.760;19.604;2023-04-25T00:20:59;15.23;;;11.57;;
28627;SDS011;15815;46.760;19.604;2023-04-25T00:23:24;13.90;;;11.65;;
28627;SDS011;15815;46.760;19.604;2023-04-25T00:25:50;13.10;;;11.73;;
28627;SDS011;15815;46.760;19.604;2023-04-25T00:28:16;16.10;;;11.57;;
28627;SDS011;15815;46.760;19.604;2023-04-25T00:30:42;14.20;;;11.73;;
28627;SDS011;15815;46.760;19.604;2023-04-25T00:33:08;13.82;;;11.52;;
28627;SDS011;15815;46.760;19.604;2023-04-25T00:35:34;11.63;;;10.40;;
28627;SDS011;15815;46.760;19.604;2023-04-25T00:38:00;11.20;;;9.77;;
28627;SDS011;15815;46.760;19.604;2023-04-25T00:40:27;11.20;;;9.80;;
28627;SDS011;15815;46.760;19.604;2023-04-25T00:42:53;14.82;;;10.80;;
28627;SDS011;15815;46.760;19.604;2023-04-25T00:45:19;10.75;;;9.13;;
28627;SDS011;15815;46.760;19.604;2023-04-25T00:47:45;11.15;;;8.80;;
28627;SDS011;15815;46.760;19.604;2023-04-25T00:50:11;9.10;;;7.85;;
28627;SDS011;15815;46.760;19.604;2023-04-25T00:52:37;10.60;;;7.95;;
28627;SDS011;15815;46.760;19.604;2023-04-25T00:55:05;14.32;;;7.63;;
28627;SDS011;15815;46.760;19.604;2023-04-25T00:57:31;11.35;;;7.20;;
28627;SDS011;15815;46.760;19.604;2023-04-25T00:59:56;8.32;;;6.88;;
28627;SDS011;15815;46.760;19.604;2023-04-25T01:02:23;10.77;;;7.30;;
28627;SDS011;15815;46.760;19.604;2023-04-25T01:04:50;11.18;;;7.20;;
28627;SDS011;15815;46.760;19.604;2023-04-25T01:07:18;12.40;;;7.03;;
28627;SDS011;15815;46.760;19.604;2023-04-25T01:09:44;9.25;;;6.90;;
28627;SDS011;15815;46.760;19.604;2023-04-25T01:12:10;12.02;;;6.40;;
28627;SDS011;15815;46.760;19.604;2023-04-25T01:14:36;10.07;;;5.60;;
28627;SDS011;15815;46.760;19.604;2023-04-25T01:17:02;10.13;;;5.97;;
28627;SDS011;15815;46.760;19.604;2023-04-25T01:19:27;9.68;;;6.22;;
28627;SDS011;15815;46.760;19.604;2023-04-25T01:21:53;6.45;;;5.85;;
28627;SDS011;15815;46.760;19.604;2023-04-25T01:24:18;6.60;;;5.13;;
28627;SDS011;15815;46.760;19.604;2023-04-25T01:26:44;10.57;;;5.53;;
28627;SDS011;15815;46.760;19.604;2023-04-25T01:29:10;6.18;;;5.57;;
28627;SDS011;15815;46.760;19.604;2023-04-25T01:31:36;6.70;;;5.82;;
28627;SDS011;15815;46.760;19.604;2023-04-25T01:34:03;6.10;;;4.95;;
28627;SDS011;15815;46.760;19.604;2023-04-25T01:36:28;6.30;;;5.10;;
28627;SDS011;15815;46.760;19.604;2023-04-25T01:38:54;5.22;;;4.72;;
28627;SDS011;15815;46.760;19.604;2023-04-25T01:41:19;6.22;;;4.63;;
28627;SDS011;15815;46.760;19.604;2023-04-25T01:43:46;7.30;;;4.63;;
28627;SDS011;15815;46.760;19.604;2023-04-25T01:46:12;5.75;;;4.00;;
28627;SDS011;15815;46.760;19.604;2023-04-25T01:48:37;5.97;;;4.10;;
28627;SDS011;15815;46.760;19.604;2023-04-25T01:51:03;5.25;;;4.07;;
28627;SDS011;15815;46.760;19.604;2023-04-25T01:53:29;4.13;;;3.67;;
28627;SDS011;15815;46.760;19.604;2023-04-25T01:55:55;5.78;;;3.95;;
28627;SDS011;15815;46.760;19.604;2023-04-25T01:58:20;4.22;;;3.78;;
28627;SDS011;15815;46.760;19.604;2023-04-25T02:00:46;8.23;;;3.50;;
28627;SDS011;15815;46.760;19.604;2023-04-25T02:03:12;3.67;;;3.35;;
28627;SDS011;15815;46.760;19.604;2023-04-25T02:05:37;8.50;;;4.00;;
28627;SDS011;15815;46.760;19.604;2023-04-25T02:08:04;6.15;;;3.58;;
28627;SDS011;15815;46.760;19.604;2023-04-25T02:10:31;4.93;;;3.10;;
28627;SDS011;15815;46.760;19.604;2023-04-25T02:12:57;5.90;;;3.28;;
28627;SDS011;15815;46.760;19.604;2023-04-25T02:15:22;4.18;;;3.28;;
28627;SDS011;15815;46.760;19.604;2023-04-25T02:17:48;5.78;;;2.80;;
28627;SDS011;15815;46.760;19.604;2023-04-25T02:22:42;3.60;;;3.20;;
28627;SDS011;15815;46.760;19.604;2023-04-25T02:25:08;6.88;;;3.60;;
28627;SDS011;15815;46.760;19.604;2023-04-25T02:27:37;5.03;;;3.30;;
28627;SDS011;15815;46.760;19.604;2023-04-25T02:30:03;4.97;;;3.83;;
28627;SDS011;15815;46.760;19.604;2023-04-25T02:32:30;8.82;;;3.38;;
28627;SDS011;15815;46.760;19.604;2023-04-25T02:34:55;13.40;;;4.78;;
28627;SDS011;15815;46.760;19.604;2023-04-25T02:37:21;4.95;;;3.67;;
28627;SDS011;15815;46.760;19.604;2023-04-25T02:39:46;6.35;;;4.25;;
28627;SDS011;15815;46.760;19.604;2023-04-25T02:42:12;6.88;;;3.65;;
28627;SDS011;15815;46.760;19.604;2023-04-25T02:44:37;5.00;;;3.95;;
28627;SDS011;15815;46.760;19.604;2023-04-25T02:47:03;5.35;;;4.20;;
28627;SDS011;15815;46.760;19.604;2023-04-25T02:49:28;6.63;;;4.90;;
28627;SDS011;15815;46.760;19.604;2023-04-25T02:51:54;5.25;;;4.40;;
28627;SDS011;15815;46.760;19.604;2023-04-25T02:54:23;6.55;;;4.72;;
28627;SDS011;15815;46.760;19.604;2023-04-25T02:56:48;8.32;;;4.93;;
28627;SDS011;15815;46.760;19.604;2023-04-25T02:59:14;7.30;;;5.68;;
28627;SDS011;15815;46.760;19.604;2023-04-25T03:01:39;6.30;;;4.88;;
28627;SDS011;15815;46.760;19.604;2023-04-25T03:04:06;6.72;;;5.47;;
28627;SDS011;15815;46.760;19.604;2023-04-25T03:06:31;7.22;;;5.82;;
28627;SDS011;15815;46.760;19.604;2023-04-25T03:08:57;7.55;;;5.25;;
28627;SDS011;15815;46.760;19.604;2023-04-25T03:11:24;9.18;;;5.72;;
28627;SDS011;15815;46.760;19.604;2023-04-25T03:13:50;10.77;;;6.40;;
28627;SDS011;15815;46.760;19.604;2023-04-25T03:16:16;6.82;;;5.97;;
28627;SDS011;15815;46.760;19.604;2023-04-25T03:18:41;7.05;;;5.70;;
28627;SDS011;15815;46.760;19.604;2023-04-25T03:21:08;7.05;;;5.97;;
28627;SDS011;15815;46.760;19.604;2023-04-25T03:23:34;8.88;;;5.85;;
28627;SDS011;15815;46.760;19.604;2023-04-25T03:26:00;9.93;;;6.75;;
28627;SDS011;15815;46.760;19.604;2023-04-25T03:28:26;7.07;;;6.38;;
28627;SDS011;15815;46.760;19.604;2023-04-25T03:30:52;7.90;;;6.50;;
28627;SDS011;15815;46.760;19.604;2023-04-25T03:33:18;6.78;;;6.07;;
28627;SDS011;15815;46.760;19.604;2023-04-25T03:35:43;10.15;;;6.50;;
28627;SDS011;15815;46.760;19.604;2023-04-25T03:38:09;8.23;;;6.15;;
28627;SDS011;15815;46.760;19.604;2023-04-25T03:40:37;8.27;;;5.70;;
28627;SDS011;15815;46.760;19.604;2023-04-25T03:43:03;7.13;;;6.03;;
28627;SDS011;15815;46.760;19.604;2023-04-25T03:45:28;10.63;;;6.18;;
28627;SDS011;15815;46.760;19.604;2023-04-25T03:47:54;6.38;;;4.95;;
28627;SDS011;15815;46.760;19.604;2023-04-25T03:50:19;8.15;;;6.05;;
28627;SDS011;15815;46.760;19.604;2023-04-25T03:52:45;6.15;;;5.10;;
28627;SDS011;15815;46.760;19.604;2023-04-25T03:55:13;9.63;;;5.30;;
28627;SDS011;15815;46.760;19.604;2023-04-25T03:57:39;7.25;;;5.20;;
28627;SDS011;15815;46.760;19.604;2023-04-25T04:00:05;9.32;;;5.18;;
28627;SDS011;15815;46.760;19.604;2023-04-25T04:02:31;6.75;;;5.40;;
28627;SDS011;15815;46.760;19.604;2023-04-25T04:04:57;8.02;;;5.45;;
28627;SDS011;15815;46.760;19.604;2023-04-25T04:07:23;6.20;;;5.32;;
28627;SDS011;15815;46.760;19.604;2023-04-25T04:09:48;8.88;;;5.85;;
28627;SDS011;15815;46.760;19.604;2023-04-25T04:12:23;5.85;;;4.38;;
28627;SDS011;15815;46.760;19.604;2023-04-25T04:14:49;13.40;;;4.50;;
28627;SDS011;15815;46.760;19.604;2023-04-25T04:17:15;12.50;;;4.57;;
28627;SDS011;15815;46.760;19.604;2023-04-25T04:19:41;5.30;;;4.75;;
28627;SDS011;15815;46.760;19.604;2023-04-25T04:22:07;6.03;;;4.43;;
28627;SDS011;15815;46.760;19.604;2023-04-25T04:24:32;23.52;;;5.20;;
28627;SDS011;15815;46.760;19.604;2023-04-25T04:27:01;6.30;;;4.43;;
28627;SDS011;15815;46.760;19.604;2023-04-25T04:29:26;4.82;;;4.03;;
28627;SDS011;15815;46.760;19.604;2023-04-25T04:31:52;5.57;;;4.28;;
28627;SDS011;15815;46.760;19.604;2023-04-25T04:34:20;6.70;;;3.90;;
28627;SDS011;15815;46.760;19.604;2023-04-25T04:36:46;14.32;;;4.47;;
28627;SDS011;15815;46.760;19.604;2023-04-25T04:39:12;7.32;;;4.22;;
28627;SDS011;15815;46.760;19.604;2023-04-25T04:41:38;8.18;;;4.45;;
28627;SDS011;15815;46.760;19.604;2023-04-25T04:44:04;7.38;;;4.03;;
28627;SDS011;15815;46.760;19.604;2023-04-25T04:46:29;7.50;;;4.75;;
28627;SDS011;15815;46.760;19.604;2023-04-25T04:48:55;4.43;;;4.00;;
28627;SDS011;15815;46.760;19.604;2023-04-25T04:51:25;6.57;;;4.57;;
28627;SDS011;15815;46.760;19.604;2023-04-25T04:53:51;7.38;;;4.20;;
28627;SDS011;15815;46.760;19.604;2023-04-25T04:56:17;7.53;;;4.22;;
28627;SDS011;15815;46.760;19.604;2023-04-25T04:58:43;5.38;;;4.00;;
28627;SDS011;15815;46.760;19.604;2023-04-25T05:01:08;5.40;;;3.83;;
28627;SDS011;15815;46.760;19.604;2023-04-25T05:03:37;6.32;;;3.92;;
28627;SDS011;15815;46.760;19.604;2023-04-25T05:06:02;4.97;;;3.95;;
28627;SDS011;15815;46.760;19.604;2023-04-25T05:08:28;5.72;;;4.82;;
28627;SDS011;15815;46.760;19.604;2023-04-25T05:10:55;8.75;;;5.43;;
28627;SDS011;15815;46.760;19.604;2023-04-25T05:13:20;4.72;;;4.20;;
28627;SDS011;15815;46.760;19.604;2023-04-25T05:15:46;4.63;;;3.80;;
28627;SDS011;15815;46.760;19.604;2023-04-25T05:18:12;8.50;;;4.63;;
28627;SDS011;15815;46.760;19.604;2023-04-25T05:20:37;4.85;;;4.18;;
28627;SDS011;15815;46.760;19.604;2023-04-25T05:23:03;5.70;;;4.25;;
28627;SDS011;15815;46.760;19.604;2023-04-25T05:25:30;6.22;;;4.20;;
28627;SDS011;15815;46.760;19.604;2023-04-25T05:27:55;5.13;;;3.95;;
28627;SDS011;15815;46.760;19.604;2023-04-25T05:30:21;6.43;;;4.35;;
28627;SDS011;15815;46.760;19.604;2023-04-25T05:32:46;6.00;;;4.40;;
28627;SDS011;15815;46.760;19.604;2023-04-25T05:35:12;5.30;;;4.10;;
28627;SDS011;15815;46.760;19.604;2023-04-25T05:37:38;7.13;;;4.00;;
28627;SDS011;15815;46.760;19.604;2023-04-25T05:40:03;4.85;;;4.35;;
28627;SDS011;15815;46.760;19.604;2023-04-25T05:42:31;9.45;;;7.38;;
28627;SDS011;15815;46.760;19.604;2023-04-25T05:44:57;14.07;;;12.65;;
28627;SDS011;15815;46.760;19.604;2023-04-25T05:47:23;4.63;;;4.22;;
28627;SDS011;15815;46.760;19.604;2023-04-25T05:49:48;8.15;;;4.45;;
28627;SDS011;15815;46.760;19.604;2023-04-25T05:52:14;12.30;;;9.07;;
28627;SDS011;15815;46.760;19.604;2023-04-25T05:54:39;6.00;;;4.65;;
28627;SDS011;15815;46.760;19.604;2023-04-25T05:57:08;4.32;;;3.92;;
28627;SDS011;15815;46.760;19.604;2023-04-25T05:59:33;5.47;;;3.50;;
28627;SDS011;15815;46.760;19.604;2023-04-25T06:01:59;4.60;;;4.10;;
28627;SDS011;15815;46.760;19.604;2023-04-25T06:04:28;6.10;;;4.22;;
28627;SDS011;15815;46.760;19.604;2023-04-25T06:06:53;4.85;;;4.20;;
28627;SDS011;15815;46.760;19.604;2023-04-25T06:09:19;5.35;;;4.25;;
28627;SDS011;15815;46.760;19.604;2023-04-25T06:11:45;7.72;;;5.05;;
28627;SDS011;15815;46.760;19.604;2023-04-25T06:14:10;10.48;;;4.40;;
28627;SDS011;15815;46.760;19.604;2023-04-25T06:16:36;4.45;;;4.03;;
28627;SDS011;15815;46.760;19.604;2023-04-25T06:19:03;4.00;;;3.60;;
28627;SDS011;15815;46.760;19.604;2023-04-25T06:21:28;4.47;;;4.00;;
28627;SDS011;15815;46.760;19.604;2023-04-25T06:23:54;5.80;;;3.72;;
28627;SDS011;15815;46.760;19.604;2023-04-25T06:26:19;4.72;;;4.28;;
28627;SDS011;15815;46.760;19.604;2023-04-25T06:28:45;4.78;;;3.67;;
28627;SDS011;15815;46.760;19.604;2023-04-25T06:31:10;5.03;;;4.05;;
28627;SDS011;15815;46.760;19.604;2023-04-25T06:33:36;12.25;;;3.80;;
28627;SDS011;15815;46.760;19.604;2023-04-25T06:36:02;5.35;;;4.13;;
28627;SDS011;15815;46.760;19.604;2023-04-25T06:38:28;4.47;;;3.90;;
28627;SDS011;15815;46.760;19.604;2023-04-25T06:40:53;4.47;;;4.07;;
28627;SDS011;15815;46.760;19.604;2023-04-25T06:43:19;6.40;;;3.83;;
28627;SDS011;15815;46.760;19.604;2023-04-25T06:45:44;8.98;;;4.53;;
28627;SDS011;15815;46.760;19.604;2023-04-25T06:48:10;4.50;;;4.10;;
28627;SDS011;15815;46.760;19.604;2023-04-25T06:50:36;6.55;;;3.70;;
28627;SDS011;15815;46.760;19.604;2023-04-25T06:53:01;5.53;;;3.53;;
28627;SDS011;15815;46.760;19.604;2023-04-25T06:55:27;5.70;;;4.30;;
28627;SDS011;15815;46.760;19.604;2023-04-25T06:57:52;5.68;;;4.55;;
28627;SDS011;15815;46.760;19.604;2023-04-25T07:00:18;5.53;;;4.18;;
28627;SDS011;15815;46.760;19.604;2023-04-25T07:02:44;5.15;;;4.55;;
28627;SDS011;15815;46.760;19.604;2023-04-25T07:05:09;5.35;;;4.63;;
28627;SDS011;15815;46.760;19.604;2023-04-25T07:07:35;5.95;;;5.35;;
28627;SDS011;15815;46.760;19.604;2023-04-25T07:10:01;8.65;;;4.85;;
28627;SDS011;15815;46.760;19.604;2023-04-25T07:12:27;5.38;;;4.88;;
28627;SDS011;15815;46.760;19.604;2023-04-25T07:14:54;6.05;;;4.85;;
28627;SDS011;15815;46.760;19.604;2023-04-25T07:17:19;10.85;;;6.20;;
28627;SDS011;15815;46.760;19.604;2023-04-25T07:19:46;9.07;;;4.85;;
28627;SDS011;15815;46.760;19.604;2023-04-25T07:22:11;8.45;;;4.78;;
28627;SDS011;15815;46.760;19.604;2023-04-25T07:24:37;5.05;;;4.20;;
28627;SDS011;15815;46.760;19.604;2023-04-25T07:27:02;5.10;;;4.22;;
28627;SDS011;15815;46.760;19.604;2023-04-25T07:29:29;5.05;;;4.20;;
28627;SDS011;15815;46.760;19.604;2023-04-25T07:31:55;4.65;;;3.70;;
28627;SDS011;15815;46.760;19.604;2023-04-25T07:34:22;4.20;;;3.78;;
28627;SDS011;15815;46.760;19.604;2023-04-25T07:36:48;8.70;;;3.97;;
28627;SDS011;15815;46.760;19.604;2023-04-25T07:39:14;4.38;;;3.47;;
28627;SDS011;15815;46.760;19.604;2023-04-25T07:41:40;7.95;;;5.13;;
28627;SDS011;15815;46.760;19.604;2023-04-25T07:44:07;4.65;;;3.95;;
28627;SDS011;15815;46.760;19.604;2023-04-25T07:46:32;6.15;;;3.53;;
28627;SDS011;15815;46.760;19.604;2023-04-25T07:48:58;5.47;;;3.08;;
28627;SDS011;15815;46.760;19.604;2023-04-25T07:51:24;5.80;;;3.05;;
28627;SDS011;15815;46.760;19.604;2023-04-25T07:53:49;3.85;;;3.17;;
28627;SDS011;15815;46.760;19.604;2023-04-25T07:56:15;3.70;;;3.08;;
28627;SDS011;15815;46.760;19.604;2023-04-25T07:58:43;5.65;;;3.25;;
28627;SDS011;15815;46.760;19.604;2023-04-25T08:01:09;4.97;;;2.72;;
28627;SDS011;15815;46.760;19.604;2023-04-25T08:03:40;2.50;;;2.30;;
28627;SDS011;15815;46.760;19.604;2023-04-25T08:06:05;5.15;;;1.80;;
28627;SDS011;15815;46.760;19.604;2023-04-25T08:08:31;3.85;;;2.50;;
28627;SDS011;15815;46.760;19.604;2023-04-25T08:10:56;3.78;;;1.95;;
28627;SDS011;15815;46.760;19.604;2023-04-25T08:13:22;4.82;;;1.98;;
28627;SDS011;15815;46.760;19.604;2023-04-25T08:15:47;2.65;;;1.80;;
28627;SDS011;15815;46.760;19.604;2023-04-25T08:18:13;7.35;;;1.65;;
28627;SDS011;15815;46.760;19.604;2023-04-25T08:20:42;2.10;;;1.90;;
28627;SDS011;15815;46.760;19.604;2023-04-25T08:23:07;4.85;;;1.75;;
28627;SDS011;15815;46.760;19.604;2023-04-25T08:25:33;2.08;;;1.70;;
28627;SDS011;15815;46.760;19.604;2023-04-25T08:27:58;2.88;;;1.50;;
28627;SDS011;15815;46.760;19.604;2023-04-25T08:30:24;2.47;;;1.60;;
28627;SDS011;15815;46.760;19.604;2023-04-25T08:32:50;5.13;;;2.03;;
28627;SDS011;15815;46.760;19.604;2023-04-25T08:35:15;4.35;;;2.28;;
28627;SDS011;15815;46.760;19.604;2023-04-25T08:37:41;4.57;;;1.90;;
28627;SDS011;15815;46.760;19.604;2023-04-25T08:40:06;3.58;;;2.13;;
28627;SDS011;15815;46.760;19.604;2023-04-25T08:42:37;2.17;;;1.97;;
28627;SDS011;15815;46.760;19.604;2023-04-25T08:45:03;3.65;;;3.35;;
28627;SDS011;15815;46.760;19.604;2023-04-25T08:47:29;5.70;;;2.50;;
28627;SDS011;15815;46.760;19.604;2023-04-25T08:49:58;3.28;;;1.95;;
28627;SDS011;15815;46.760;19.604;2023-04-25T08:52:25;2.22;;;2.00;;
28627;SDS011;15815;46.760;19.604;2023-04-25T08:54:55;2.72;;;1.77;;
28627;SDS011;15815;46.760;19.604;2023-04-25T08:57:25;3.38;;;1.70;;
28627;SDS011;15815;46.760;19.604;2023-04-25T08:59:51;5.07;;;2.03;;
28627;SDS011;15815;46.760;19.604;2023-04-25T09:02:18;2.90;;;1.80;;
28627;SDS011;15815;46.760;19.604;2023-04-25T09:04:43;3.70;;;2.00;;
28627;SDS011;15815;46.760;19.604;2023-04-25T09:07:09;3.28;;;2.15;;
28627;SDS011;15815;46.760;19.604;2023-04-25T09:09:35;3.47;;;2.33;;
28627;SDS011;15815;46.760;19.604;2023-04-25T09:12:01;7.05;;;2.47;;
28627;SDS011;15815;46.760;19.604;2023-04-25T09:14:26;2.88;;;2.40;;
28627;SDS011;15815;46.760;19.604;2023-04-25T09:19:25;3.85;;;2.30;;
28627;SDS011;15815;46.760;19.604;2023-04-25T09:21:56;5.45;;;2.70;;
28627;SDS011;15815;46.760;19.604;2023-04-25T09:24:30;4.90;;;3.00;;
28627;SDS011;15815;46.760;19.604;2023-04-25T09:27:05;5.10;;;2.72;;
28627;SDS011;15815;46.760;19.604;2023-04-25T09:29:35;4.75;;;2.20;;
28627;SDS011;15815;46.760;19.604;2023-04-25T09:32:11;4.28;;;1.88;;
28627;SDS011;15815;46.760;19.604;2023-04-25T09:34:50;2.60;;;2.10;;
28627;SDS011;15815;46.760;19.604;2023-04-25T09:37:28;2.42;;;2.00;;
28627;SDS011;15815;46.760;19.604;2023-04-25T09:39:59;1.92;;;1.60;;
28627;SDS011;15815;46.760;19.604;2023-04-25T09:42:26;3.83;;;2.00;;
28627;SDS011;15815;46.760;19.604;2023-04-25T09:44:53;4.45;;;1.73;;
28627;SDS011;15815;46.760;19.604;2023-04-25T09:47:19;6.95;;;1.92;;
28627;SDS011;15815;46.760;19.604;2023-04-25T09:49:45;2.78;;;1.80;;
28627;SDS011;15815;46.760;19.604;2023-04-25T09:52:18;6.45;;;2.30;;
28627;SDS011;15815;46.760;19.604;2023-04-25T09:54:53;3.92;;;3.05;;
28627;SDS011;15815;46.760;19.604;2023-04-25T09:57:25;5.32;;;2.67;;
28627;SDS011;15815;46.760;19.604;2023-04-25T09:59:51;3.90;;;1.75;;
28627;SDS011;15815;46.760;19.604;2023-04-25T10:02:22;5.95;;;3.08;;
28627;SDS011;15815;46.760;19.604;2023-04-25T10:04:53;3.58;;;1.80;;
28627;SDS011;15815;46.760;19.604;2023-04-25T10:07:23;3.30;;;2.03;;
28627;SDS011;15815;46.760;19.604;2023-04-25T10:09:52;3.90;;;1.92;;
28627;SDS011;15815;46.760;19.604;2023-04-25T10:12:27;2.38;;;1.85;;
28627;SDS011;15815;46.760;19.604;2023-04-25T10:14:54;5.70;;;1.83;;
28627;SDS011;15815;46.760;19.604;2023-04-25T10:17:20;1.55;;;1.40;;
28627;SDS011;15815;46.760;19.604;2023-04-25T10:19:50;3.05;;;1.98;;
28627;SDS011;15815;46.760;19.604;2023-04-25T10:22:49;3.78;;;1.88;;
28627;SDS011;15815;46.760;19.604;2023-04-25T10:25:09;2.00;;;1.80;;
28627;SDS011;15815;46.760;19.604;2023-04-25T10:27:35;3.13;;;2.00;;
28627;SDS011;15815;46.760;19.604;2023-04-25T10:30:02;2.88;;;1.95;;
28627;SDS011;15815;46.760;19.604;2023-04-25T10:32:32;4.57;;;1.52;;
28627;SDS011;15815;46.760;19.604;2023-04-25T10:35:09;4.95;;;1.48;;
28627;SDS011;15815;46.760;19.604;2023-04-25T10:37:58;5.28;;;1.98;;
28627;SDS011;15815;46.760;19.604;2023-04-25T10:42:55;4.18;;;2.15;;
28627;SDS011;15815;46.760;19.604;2023-04-25T10:45:50;5.43;;;1.95;;
28627;SDS011;15815;46.760;19.604;2023-04-25T10:48:26;2.00;;;1.60;;
28627;SDS011;15815;46.760;19.604;2023-04-25T10:51:08;4.60;;;1.65;;
28627;SDS011;15815;46.760;19.604;2023-04-25T10:53:34;4.05;;;1.30;;
28627;SDS011;15815;46.760;19.604;2023-04-25T10:56:00;1.67;;;1.50;;
28627;SDS011;15815;46.760;19.604;2023-04-25T10:58:26;2.28;;;1.90;;
28627;SDS011;15815;46.760;19.604;2023-04-25T11:00:51;1.90;;;1.50;;
28627;SDS011;15815;46.760;19.604;2023-04-25T11:03:17;3.22;;;1.75;;
28627;SDS011;15815;46.760;19.604;2023-04-25T11:05:47;3.72;;;1.67;;
28627;SDS011;15815;46.760;19.604;2023-04-25T11:08:14;4.22;;;1.80;;
28627;SDS011;15815;46.760;19.604;2023-04-25T11:10:54;3.45;;;1.65;;
28627;SDS011;15815;46.760;19.604;2023-04-25T11:13:20;4.15;;;2.53;;
28627;SDS011;15815;46.760;19.604;2023-04-25T11:15:50;4.68;;;2.05;;
28627;SDS011;15815;46.760;19.604;2023-04-25T11:18:17;2.40;;;1.80;;
28627;SDS011;15815;46.760;19.604;2023-04-25T11:20:43;3.45;;;2.50;;
28627;SDS011;15815;46.760;19.604;2023-04-25T11:23:11;7.22;;;3.75;;
28627;SDS011;15815;46.760;19.604;2023-04-25T11:25:37;7.65;;;4.40;;
28627;SDS011;15815;46.760;19.604;2023-04-25T11:28:03;8.82;;;5.03;;
28627;SDS011;15815;46.760;19.604;2023-04-25T11:30:29;8.07;;;5.78;;
28627;SDS011;15815;46.760;19.604;2023-04-25T11:32:54;3.10;;;2.38;;
28627;SDS011;15815;46.760;19.604;2023-04-25T11:35:20;2.55;;;2.35;;
28627;SDS011;15815;46.760;19.604;2023-04-25T11:37:46;4.50;;;1.77;;
28627;SDS011;15815;46.760;19.604;2023-04-25T11:40:11;3.35;;;1.92;;
28627;SDS011;15815;46.760;19.604;2023-04-25T11:42:38;2.95;;;2.08;;
28627;SDS011;15815;46.760;19.604;2023-04-25T11:45:12;2.08;;;1.88;;
28627;SDS011;15815;46.760;19.604;2023-04-25T11:47:39;3.63;;;1.50;;
28627;SDS011;15815;46.760;19.604;2023-04-25T11:50:06;1.33;;;1.23;;
28627;SDS011;15815;46.760;19.604;2023-04-25T11:52:39;1.50;;;1.40;;
28627;SDS011;15815;46.760;19.604;2023-04-25T11:55:13;1.63;;;1.13;;
28627;SDS011;15815;46.760;19.604;2023-04-25T11:57:44;2.97;;;1.33;;
28627;SDS011;15815;46.760;19.604;2023-04-25T12:00:16;1.30;;;1.20;;
28627;SDS011;15815;46.760;19.604;2023-04-25T12:02:46;4.47;;;1.13;;
28627;SDS011;15815;46.760;19.604;2023-04-25T12:05:27;1.90;;;1.20;;
28627;SDS011;15815;46.760;19.604;2023-04-25T12:07:56;1.20;;;1.10;;
28627;SDS011;15815;46.760;19.604;2023-04-25T12:10:22;2.25;;;1.17;;
28627;SDS011;15815;46.760;19.604;2023-04-25T12:12:49;2.40;;;1.08;;
28627;SDS011;15815;46.760;19.604;2023-04-25T12:15:16;1.08;;;0.90;;
28627;SDS011;15815;46.760;19.604;2023-04-25T12:17:51;1.60;;;1.20;;
28627;SDS011;15815;46.760;19.604;2023-04-25T12:20:23;3.42;;;1.17;;
28627;SDS011;15815;46.760;19.604;2023-04-25T12:22:50;1.23;;;1.10;;
28627;SDS011;15815;46.760;19.604;2023-04-25T12:25:36;7.47;;;2.50;;
28627;SDS011;15815;46.760;19.604;2023-04-25T12:28:12;5.55;;;1.67;;
28627;SDS011;15815;46.760;19.604;2023-04-25T12:30:57;5.55;;;1.20;;
28627;SDS011;15815;46.760;19.604;2023-04-25T12:33:34;4.32;;;1.10;;
28627;SDS011;15815;46.760;19.604;2023-04-25T12:36:05;1.40;;;1.30;;
28627;SDS011;15815;46.760;19.604;2023-04-25T12:38:34;2.13;;;1.67;;
28627;SDS011;15815;46.760;19.604;2023-04-25T12:41:01;4.10;;;1.58;;
28627;SDS011;15815;46.760;19.604;2023-04-25T12:43:28;1.40;;;1.30;;
28627;SDS011;15815;46.760;19.604;2023-04-25T12:45:54;3.17;;;1.25;;
28627;SDS011;15815;46.760;19.604;2023-04-25T12:48:20;2.83;;;2.17;;
28627;SDS011;15815;46.760;19.604;2023-04-25T12:50:47;1.95;;;1.42;;
28627;SDS011;15815;46.760;19.604;2023-04-25T12:53:13;1.23;;;1.10;;
28627;SDS011;15815;46.760;19.604;2023-04-25T12:55:39;1.73;;;0.90;;
28627;SDS011;15815;46.760;19.604;2023-04-25T12:58:04;1.45;;;1.35;;
28627;SDS011;15815;46.760;19.604;2023-04-25T13:00:30;1.85;;;1.45;;
28627;SDS011;15815;46.760;19.604;2023-04-25T13:02:55;4.90;;;0.70;;
28627;SDS011;15815;46.760;19.604;2023-04-25T13:05:22;0.70;;;0.70;;
28627;SDS011;15815;46.760;19.604;2023-04-25T13:07:47;0.80;;;0.63;;
28627;SDS011;15815;46.760;19.604;2023-04-25T13:10:13;2.13;;;0.65;;
28627;SDS011;15815;46.760;19.604;2023-04-25T13:12:39;2.90;;;0.47;;
28627;SDS011;15815;46.760;19.604;2023-04-25T13:15:05;0.73;;;0.55;;
28627;SDS011;15815;46.760;19.604;2023-04-25T13:17:32;3.67;;;0.50;;
28627;SDS011;15815;46.760;19.604;2023-04-25T13:19:57;2.15;;;0.70;;
28627;SDS011;15815;46.760;19.604;2023-04-25T13:22:23;1.95;;;0.40;;
28627;SDS011;15815;46.760;19.604;2023-04-25T13:24:48;0.73;;;0.52;;
28627;SDS011;15815;46.760;19.604;2023-04-25T13:27:17;0.55;;;0.50;;
28627;SDS011;15815;46.760;19.604;2023-04-25T13:29:42;1.70;;;0.98;;
28627;SDS011;15815;46.760;19.604;2023-04-25T13:32:08;8.88;;;1.25;;
28627;SDS011;15815;46.760;19.604;2023-04-25T13:34:34;1.58;;;0.98;;
28627;SDS011;15815;46.760;19.604;2023-04-25T13:37:01;3.28;;;0.82;;
28627;SDS011;15815;46.760;19.604;2023-04-25T13:39:26;2.35;;;0.70;;
28627;SDS011;15815;46.760;19.604;2023-04-25T13:41:52;3.30;;;0.60;;
28627;SDS011;15815;46.760;19.604;2023-04-25T13:44:17;3.33;;;0.65;;
28627;SDS011;15815;46.760;19.604;2023-04-25T13:46:43;1.20;;;0.80;;
28627;SDS011;15815;46.760;19.604;2023-04-25T13:49:09;3.90;;;1.40;;
28627;SDS011;15815;46.760;19.604;2023-04-25T13:51:34;1.85;;;1.25;;
28627;SDS011;15815;46.760;19.604;2023-04-25T13:54:00;3.65;;;1.48;;
28627;SDS011;15815;46.760;19.604;2023-04-25T13:56:25;4.20;;;2.15;;
28627;SDS011;15815;46.760;19.604;2023-04-25T13:58:55;23.70;;;9.80;;
28627;SDS011;15815;46.760;19.604;2023-04-25T14:01:20;2.13;;;1.38;;
28627;SDS011;15815;46.760;19.604;2023-04-25T14:03:46;1.90;;;1.23;;
28627;SDS011;15815;46.760;19.604;2023-04-25T14:06:11;3.38;;;0.90;;
28627;SDS011;15815;46.760;19.604;2023-04-25T14:08:37;5.00;;;0.98;;
28627;SDS011;15815;46.760;19.604;2023-04-25T14:11:03;3.15;;;1.05;;
28627;SDS011;15815;46.760;19.604;2023-04-25T14:13:29;3.90;;;0.65;;
28627;SDS011;15815;46.760;19.604;2023-04-25T14:15:55;4.03;;;0.80;;
28627;SDS011;15815;46.760;19.604;2023-04-25T14:18:21;13.75;;;0.80;;
28627;SDS011;15815;46.760;19.604;2023-04-25T14:20:46;2.35;;;0.90;;
28627;SDS011;15815;46.760;19.604;2023-04-25T14:23:12;1.60;;;0.73;;
28627;SDS011;15815;46.760;19.604;2023-04-25T14:25:37;7.65;;;1.27;;
28627;SDS011;15815;46.760;19.604;2023-04-25T14:28:03;6.63;;;0.77;;
28627;SDS011;15815;46.760;19.604;2023-04-25T14:30:29;0.55;;;0.45;;
28627;SDS011;15815;46.760;19.604;2023-04-25T14:32:54;2.97;;;0.68;;
28627;SDS011;15815;46.760;19.604;2023-04-25T14:35:20;1.33;;;0.60;;
28627;SDS011;15815;46.760;19.604;2023-04-25T14:37:45;1.67;;;0.80;;
28627;SDS011;15815;46.760;19.604;2023-04-25T14:40:11;9.15;;;1.10;;